sensor_id;sensor_type;location;lat;lon;timestamp;temperature;humidity
11229;DHT22;5671;47.936;8.716;2022-08-07T00:01:23;14.40;79.80
11229;DHT22;5671;47.936;8.716;2022-08-07T00:03:50;14.40;78.80
11229;DHT22;5671;47.936;8.716;2022-08-07T00:06:17;14.30;78.60
11229;DHT22;5671;47.936;8.716;2022-08-07T00:08:44;14.30;79.20
11229;DHT22;5671;47.936;8.716;2022-08-07T00:11:12;14.30;79.20
11229;DHT22;5671;47.936;8.716;2022-08-07T00:13:39;14.20;79.80
11229;DHT22;5671;47.936;8.716;2022-08-07T00:16:10;14.20;78.90
11229;DHT22;5671;47.936;8.716;2022-08-07T00:18:38;14.10;78.20
11229;DHT22;5671;47.936;8.716;2022-08-07T00:21:08;14.10;78.40
11229;DHT22;5671;47.936;8.716;2022-08-07T00:23:37;14.10;79.10
11229;DHT22;5671;47.936;8.716;2022-08-07T00:26:06;14.00;79.40
11229;DHT22;5671;47.936;8.716;2022-08-07T00:28:33;14.00;79.70
11229;DHT22;5671;47.936;8.716;2022-08-07T00:31:03;13.90;79.00
11229;DHT22;5671;47.936;8.716;2022-08-07T00:33:32;13.90;78.50
11229;DHT22;5671;47.936;8.716;2022-08-07T00:35:59;13.80;78.40
11229;DHT22;5671;47.936;8.716;2022-08-07T00:38:26;13.80;79.80
11229;DHT22;5671;47.936;8.716;2022-08-07T00:40:53;13.80;80.10
11229;DHT22;5671;47.936;8.716;2022-08-07T00:43:20;13.70;79.50
11229;DHT22;5671;47.936;8.716;2022-08-07T00:45:47;13.70;79.10
11229;DHT22;5671;47.936;8.716;2022-08-07T00:48:14;13.60;79.30
11229;DHT22;5671;47.936;8.716;2022-08-07T00:50:43;13.60;80.10
11229;DHT22;5671;47.936;8.716;2022-08-07T00:53:10;13.60;79.00
11229;DHT22;5671;47.936;8.716;2022-08-07T00:55:37;13.50;78.80
11229;DHT22;5671;47.936;8.716;2022-08-07T00:58:04;13.50;78.70
11229;DHT22;5671;47.936;8.716;2022-08-07T01:00:31;13.40;79.40
11229;DHT22;5671;47.936;8.716;2022-08-07T01:02:58;13.40;78.80
11229;DHT22;5671;47.936;8.716;2022-08-07T01:05:26;13.30;78.90
11229;DHT22;5671;47.936;8.716;2022-08-07T01:07:54;13.30;79.30
11229;DHT22;5671;47.936;8.716;2022-08-07T01:10:21;13.30;79.50
11229;DHT22;5671;47.936;8.716;2022-08-07T01:12:49;13.20;79.60
11229;DHT22;5671;47.936;8.716;2022-08-07T01:15:16;13.20;80.10
11229;DHT22;5671;47.936;8.716;2022-08-07T01:17:43;13.20;79.70
11229;DHT22;5671;47.936;8.716;2022-08-07T01:20:12;13.10;80.30
11229;DHT22;5671;47.936;8.716;2022-08-07T01:22:41;13.10;80.10
11229;DHT22;5671;47.936;8.716;2022-08-07T01:25:10;13.10;81.50
11229;DHT22;5671;47.936;8.716;2022-08-07T01:27:37;13.00;79.70
11229;DHT22;5671;47.936;8.716;2022-08-07T01:30:05;13.00;79.60
11229;DHT22;5671;47.936;8.716;2022-08-07T01:32:32;12.90;79.80
11229;DHT22;5671;47.936;8.716;2022-08-07T01:35:00;12.90;79.70
11229;DHT22;5671;47.936;8.716;2022-08-07T01:37:28;12.90;80.00
11229;DHT22;5671;47.936;8.716;2022-08-07T01:39:56;12.90;79.50
11229;DHT22;5671;47.936;8.716;2022-08-07T01:42:26;12.80;79.50
11229;DHT22;5671;47.936;8.716;2022-08-07T01:44:54;12.70;79.10
11229;DHT22;5671;47.936;8.716;2022-08-07T01:47:21;12.70;79.10
11229;DHT22;5671;47.936;8.716;2022-08-07T01:49:48;12.70;79.60
11229;DHT22;5671;47.936;8.716;2022-08-07T01:52:16;12.60;79.80
11229;DHT22;5671;47.936;8.716;2022-08-07T01:54:45;12.60;80.50
11229;DHT22;5671;47.936;8.716;2022-08-07T01:57:17;12.60;81.00
11229;DHT22;5671;47.936;8.716;2022-08-07T01:59:48;12.60;80.80
11229;DHT22;5671;47.936;8.716;2022-08-07T02:02:19;12.50;81.60
11229;DHT22;5671;47.936;8.716;2022-08-07T02:04:51;12.50;80.50
11229;DHT22;5671;47.936;8.716;2022-08-07T02:07:22;12.50;81.30
11229;DHT22;5671;47.936;8.716;2022-08-07T02:09:52;12.50;81.70
11229;DHT22;5671;47.936;8.716;2022-08-07T02:12:23;12.50;81.80
11229;DHT22;5671;47.936;8.716;2022-08-07T02:14:55;12.40;80.90
11229;DHT22;5671;47.936;8.716;2022-08-07T02:17:22;12.40;80.70
11229;DHT22;5671;47.936;8.716;2022-08-07T02:19:52;12.40;81.90
11229;DHT22;5671;47.936;8.716;2022-08-07T02:22:21;12.40;82.10
11229;DHT22;5671;47.936;8.716;2022-08-07T02:24:51;12.30;81.90
11229;DHT22;5671;47.936;8.716;2022-08-07T02:27:23;12.30;81.20
11229;DHT22;5671;47.936;8.716;2022-08-07T02:29:51;12.30;80.50
11229;DHT22;5671;47.936;8.716;2022-08-07T02:32:19;12.30;81.20
11229;DHT22;5671;47.936;8.716;2022-08-07T02:34:47;12.30;81.40
11229;DHT22;5671;47.936;8.716;2022-08-07T02:37:15;12.30;82.10
11229;DHT22;5671;47.936;8.716;2022-08-07T02:39:45;12.30;81.50
11229;DHT22;5671;47.936;8.716;2022-08-07T02:42:14;12.30;81.80
11229;DHT22;5671;47.936;8.716;2022-08-07T02:44:47;12.30;81.90
11229;DHT22;5671;47.936;8.716;2022-08-07T02:47:16;12.30;82.20
11229;DHT22;5671;47.936;8.716;2022-08-07T02:49:43;12.40;82.80
11229;DHT22;5671;47.936;8.716;2022-08-07T02:52:14;12.40;82.30
11229;DHT22;5671;47.936;8.716;2022-08-07T02:54:43;12.40;82.30
11229;DHT22;5671;47.936;8.716;2022-08-07T02:57:11;12.40;83.10
11229;DHT22;5671;47.936;8.716;2022-08-07T02:59:41;12.40;82.20
11229;DHT22;5671;47.936;8.716;2022-08-07T03:02:15;12.40;83.40
11229;DHT22;5671;47.936;8.716;2022-08-07T03:04:44;12.40;83.10
11229;DHT22;5671;47.936;8.716;2022-08-07T03:07:12;12.40;82.90
11229;DHT22;5671;47.936;8.716;2022-08-07T03:09:40;12.50;82.80
11229;DHT22;5671;47.936;8.716;2022-08-07T03:12:08;12.50;82.30
11229;DHT22;5671;47.936;8.716;2022-08-07T03:14:36;12.50;82.30
11229;DHT22;5671;47.936;8.716;2022-08-07T03:17:04;12.50;82.00
11229;DHT22;5671;47.936;8.716;2022-08-07T03:19:34;12.50;82.20
11229;DHT22;5671;47.936;8.716;2022-08-07T03:22:03;12.50;81.60
11229;DHT22;5671;47.936;8.716;2022-08-07T03:24:30;12.50;81.90
11229;DHT22;5671;47.936;8.716;2022-08-07T03:27:00;12.40;81.80
11229;DHT22;5671;47.936;8.716;2022-08-07T03:29:34;12.40;82.20
11229;DHT22;5671;47.936;8.716;2022-08-07T03:32:06;12.40;82.30
11229;DHT22;5671;47.936;8.716;2022-08-07T03:34:37;12.40;82.50
11229;DHT22;5671;47.936;8.716;2022-08-07T03:37:05;12.50;82.90
11229;DHT22;5671;47.936;8.716;2022-08-07T03:39:35;12.50;82.90
11229;DHT22;5671;47.936;8.716;2022-08-07T03:42:02;12.40;82.40
11229;DHT22;5671;47.936;8.716;2022-08-07T03:44:31;12.50;83.20
11229;DHT22;5671;47.936;8.716;2022-08-07T03:46:59;12.50;82.90
11229;DHT22;5671;47.936;8.716;2022-08-07T03:49:27;12.50;83.80
11229;DHT22;5671;47.936;8.716;2022-08-07T03:51:56;12.50;83.70
11229;DHT22;5671;47.936;8.716;2022-08-07T03:54:24;12.50;83.30
11229;DHT22;5671;47.936;8.716;2022-08-07T03:56:52;12.50;84.10
11229;DHT22;5671;47.936;8.716;2022-08-07T03:59:19;12.50;84.20
11229;DHT22;5671;47.936;8.716;2022-08-07T04:01:47;12.50;84.10
11229;DHT22;5671;47.936;8.716;2022-08-07T04:04:15;12.50;83.20
11229;DHT22;5671;47.936;8.716;2022-08-07T04:06:43;12.50;83.50
11229;DHT22;5671;47.936;8.716;2022-08-07T04:09:13;12.60;83.80
11229;DHT22;5671;47.936;8.716;2022-08-07T04:11:40;12.60;83.80
11229;DHT22;5671;47.936;8.716;2022-08-07T04:14:07;12.60;83.80
11229;DHT22;5671;47.936;8.716;2022-08-07T04:16:35;12.60;83.20
11229;DHT22;5671;47.936;8.716;2022-08-07T04:19:03;12.60;84.30
11229;DHT22;5671;47.936;8.716;2022-08-07T04:21:31;12.60;83.70
11229;DHT22;5671;47.936;8.716;2022-08-07T04:23:58;12.60;82.90
11229;DHT22;5671;47.936;8.716;2022-08-07T04:26:27;12.60;83.40
11229;DHT22;5671;47.936;8.716;2022-08-07T04:28:54;12.60;83.50
11229;DHT22;5671;47.936;8.716;2022-08-07T04:31:22;12.60;83.50
11229;DHT22;5671;47.936;8.716;2022-08-07T04:33:50;12.60;83.60
11229;DHT22;5671;47.936;8.716;2022-08-07T04:36:17;12.60;83.70
11229;DHT22;5671;47.936;8.716;2022-08-07T04:38:45;12.60;84.00
11229;DHT22;5671;47.936;8.716;2022-08-07T04:41:12;12.70;83.60
11229;DHT22;5671;47.936;8.716;2022-08-07T04:43:41;12.70;83.50
11229;DHT22;5671;47.936;8.716;2022-08-07T04:46:13;12.70;84.30
11229;DHT22;5671;47.936;8.716;2022-08-07T04:48:48;12.70;84.50
11229;DHT22;5671;47.936;8.716;2022-08-07T04:51:23;12.80;84.90
11229;DHT22;5671;47.936;8.716;2022-08-07T04:53:58;12.80;84.70
11229;DHT22;5671;47.936;8.716;2022-08-07T04:56:31;12.90;84.10
11229;DHT22;5671;47.936;8.716;2022-08-07T04:59:09;12.90;84.60
11229;DHT22;5671;47.936;8.716;2022-08-07T05:01:41;12.90;84.00
11229;DHT22;5671;47.936;8.716;2022-08-07T05:04:12;13.00;83.20
11229;DHT22;5671;47.936;8.716;2022-08-07T05:06:45;13.00;84.60
11229;DHT22;5671;47.936;8.716;2022-08-07T05:09:21;13.10;84.90
11229;DHT22;5671;47.936;8.716;2022-08-07T05:11:51;13.10;84.20
11229;DHT22;5671;47.936;8.716;2022-08-07T05:14:24;13.10;83.20
11229;DHT22;5671;47.936;8.716;2022-08-07T05:16:55;13.20;84.30
11229;DHT22;5671;47.936;8.716;2022-08-07T05:19:24;13.20;84.20
11229;DHT22;5671;47.936;8.716;2022-08-07T05:21:54;13.30;84.80
11229;DHT22;5671;47.936;8.716;2022-08-07T05:24:23;13.30;83.40
11229;DHT22;5671;47.936;8.716;2022-08-07T05:26:54;13.30;84.20
11229;DHT22;5671;47.936;8.716;2022-08-07T05:29:25;13.30;84.20
11229;DHT22;5671;47.936;8.716;2022-08-07T05:31:53;13.40;84.60
11229;DHT22;5671;47.936;8.716;2022-08-07T05:34:22;13.40;85.50
11229;DHT22;5671;47.936;8.716;2022-08-07T05:36:51;13.50;85.30
11229;DHT22;5671;47.936;8.716;2022-08-07T05:39:20;13.50;85.70
11229;DHT22;5671;47.936;8.716;2022-08-07T05:41:48;13.60;85.20
11229;DHT22;5671;47.936;8.716;2022-08-07T05:44:17;13.70;84.70
11229;DHT22;5671;47.936;8.716;2022-08-07T05:46:48;13.70;84.00
11229;DHT22;5671;47.936;8.716;2022-08-07T05:49:15;13.80;83.40
11229;DHT22;5671;47.936;8.716;2022-08-07T05:51:44;13.80;83.70
11229;DHT22;5671;47.936;8.716;2022-08-07T05:54:11;13.90;83.60
11229;DHT22;5671;47.936;8.716;2022-08-07T05:56:39;13.90;83.20
11229;DHT22;5671;47.936;8.716;2022-08-07T05:59:13;14.00;82.70
11229;DHT22;5671;47.936;8.716;2022-08-07T06:01:40;14.00;82.50
11229;DHT22;5671;47.936;8.716;2022-08-07T06:04:10;14.10;83.10
11229;DHT22;5671;47.936;8.716;2022-08-07T06:06:40;14.10;82.10
11229;DHT22;5671;47.936;8.716;2022-08-07T06:09:07;14.20;82.20
11229;DHT22;5671;47.936;8.716;2022-08-07T06:11:35;14.20;81.20
11229;DHT22;5671;47.936;8.716;2022-08-07T06:14:04;14.30;81.40
11229;DHT22;5671;47.936;8.716;2022-08-07T06:16:32;14.30;81.30
11229;DHT22;5671;47.936;8.716;2022-08-07T06:19:00;14.40;80.90
11229;DHT22;5671;47.936;8.716;2022-08-07T06:21:29;14.40;81.10
11229;DHT22;5671;47.936;8.716;2022-08-07T06:23:56;14.50;80.00
11229;DHT22;5671;47.936;8.716;2022-08-07T06:26:24;14.60;80.50
11229;DHT22;5671;47.936;8.716;2022-08-07T06:28:53;14.70;80.50
11229;DHT22;5671;47.936;8.716;2022-08-07T06:31:21;14.70;79.00
11229;DHT22;5671;47.936;8.716;2022-08-07T06:33:50;14.80;78.70
11229;DHT22;5671;47.936;8.716;2022-08-07T06:36:17;14.80;78.80
11229;DHT22;5671;47.936;8.716;2022-08-07T06:38:48;14.80;78.90
11229;DHT22;5671;47.936;8.716;2022-08-07T06:41:20;14.90;78.90
11229;DHT22;5671;47.936;8.716;2022-08-07T06:43:49;14.90;78.10
11229;DHT22;5671;47.936;8.716;2022-08-07T06:46:16;14.90;77.90
11229;DHT22;5671;47.936;8.716;2022-08-07T06:48:43;15.00;77.90
11229;DHT22;5671;47.936;8.716;2022-08-07T06:51:15;15.00;78.20
11229;DHT22;5671;47.936;8.716;2022-08-07T06:53:44;15.00;77.90
11229;DHT22;5671;47.936;8.716;2022-08-07T06:56:12;15.10;78.00
11229;DHT22;5671;47.936;8.716;2022-08-07T06:58:41;15.10;77.90
11229;DHT22;5671;47.936;8.716;2022-08-07T07:01:11;15.10;77.70
11229;DHT22;5671;47.936;8.716;2022-08-07T07:03:39;15.20;77.10
11229;DHT22;5671;47.936;8.716;2022-08-07T07:06:07;15.20;77.10
11229;DHT22;5671;47.936;8.716;2022-08-07T07:08:34;15.30;77.40
11229;DHT22;5671;47.936;8.716;2022-08-07T07:11:04;15.40;77.80
11229;DHT22;5671;47.936;8.716;2022-08-07T07:13:36;15.40;76.90
11229;DHT22;5671;47.936;8.716;2022-08-07T07:16:10;15.50;76.20
11229;DHT22;5671;47.936;8.716;2022-08-07T07:18:43;15.50;75.90
11229;DHT22;5671;47.936;8.716;2022-08-07T07:21:15;15.60;76.30
11229;DHT22;5671;47.936;8.716;2022-08-07T07:23:45;15.70;75.90
11229;DHT22;5671;47.936;8.716;2022-08-07T07:26:17;15.70;76.10
11229;DHT22;5671;47.936;8.716;2022-08-07T07:28:53;15.70;75.80
11229;DHT22;5671;47.936;8.716;2022-08-07T07:31:25;15.80;75.10
11229;DHT22;5671;47.936;8.716;2022-08-07T07:33:56;15.90;75.00
11229;DHT22;5671;47.936;8.716;2022-08-07T07:36:24;16.00;76.10
11229;DHT22;5671;47.936;8.716;2022-08-07T07:38:52;16.10;75.40
11229;DHT22;5671;47.936;8.716;2022-08-07T07:41:21;16.20;74.00
11229;DHT22;5671;47.936;8.716;2022-08-07T07:43:50;16.30;73.90
11229;DHT22;5671;47.936;8.716;2022-08-07T07:46:18;16.40;74.20
11229;DHT22;5671;47.936;8.716;2022-08-07T07:48:48;16.50;72.10
11229;DHT22;5671;47.936;8.716;2022-08-07T07:51:16;16.60;72.00
11229;DHT22;5671;47.936;8.716;2022-08-07T07:53:45;16.70;71.80
11229;DHT22;5671;47.936;8.716;2022-08-07T07:56:13;16.70;71.30
11229;DHT22;5671;47.936;8.716;2022-08-07T07:58:42;16.80;72.20
11229;DHT22;5671;47.936;8.716;2022-08-07T08:01:10;16.90;71.00
11229;DHT22;5671;47.936;8.716;2022-08-07T08:03:40;16.90;70.70
11229;DHT22;5671;47.936;8.716;2022-08-07T08:06:09;17.00;71.20
11229;DHT22;5671;47.936;8.716;2022-08-07T08:08:39;17.00;69.70
11229;DHT22;5671;47.936;8.716;2022-08-07T08:11:09;17.10;71.40
11229;DHT22;5671;47.936;8.716;2022-08-07T08:13:39;17.10;69.10
11229;DHT22;5671;47.936;8.716;2022-08-07T08:16:11;17.20;68.80
11229;DHT22;5671;47.936;8.716;2022-08-07T08:18:42;17.20;67.60
11229;DHT22;5671;47.936;8.716;2022-08-07T08:21:10;17.30;67.90
11229;DHT22;5671;47.936;8.716;2022-08-07T08:24:00;17.30;68.20
11229;DHT22;5671;47.936;8.716;2022-08-07T08:26:45;17.40;69.00
11229;DHT22;5671;47.936;8.716;2022-08-07T08:29:37;17.40;67.50
11229;DHT22;5671;47.936;8.716;2022-08-07T08:32:08;17.50;68.00
11229;DHT22;5671;47.936;8.716;2022-08-07T08:34:38;17.60;67.50
11229;DHT22;5671;47.936;8.716;2022-08-07T08:37:07;17.70;68.60
11229;DHT22;5671;47.936;8.716;2022-08-07T08:39:36;17.80;67.40
11229;DHT22;5671;47.936;8.716;2022-08-07T08:42:06;17.80;66.40
11229;DHT22;5671;47.936;8.716;2022-08-07T08:44:39;17.90;68.30
11229;DHT22;5671;47.936;8.716;2022-08-07T08:47:22;18.00;66.80
11229;DHT22;5671;47.936;8.716;2022-08-07T08:49:58;18.10;65.80
11229;DHT22;5671;47.936;8.716;2022-08-07T08:52:35;18.20;65.40
11229;DHT22;5671;47.936;8.716;2022-08-07T08:55:09;18.20;63.30
11229;DHT22;5671;47.936;8.716;2022-08-07T08:57:43;18.30;64.90
11229;DHT22;5671;47.936;8.716;2022-08-07T09:00:12;18.40;64.70
11229;DHT22;5671;47.936;8.716;2022-08-07T09:02:48;18.40;63.10
11229;DHT22;5671;47.936;8.716;2022-08-07T09:05:32;18.50;61.20
11229;DHT22;5671;47.936;8.716;2022-08-07T09:08:22;18.60;60.40
11229;DHT22;5671;47.936;8.716;2022-08-07T09:11:00;18.70;61.40
11229;DHT22;5671;47.936;8.716;2022-08-07T09:13:36;18.80;61.10
11229;DHT22;5671;47.936;8.716;2022-08-07T09:16:08;18.90;59.40
11229;DHT22;5671;47.936;8.716;2022-08-07T09:19:13;18.90;60.40
11229;DHT22;5671;47.936;8.716;2022-08-07T09:21:48;19.00;60.20
11229;DHT22;5671;47.936;8.716;2022-08-07T09:24:30;19.10;59.70
11229;DHT22;5671;47.936;8.716;2022-08-07T09:27:08;19.10;59.10
11229;DHT22;5671;47.936;8.716;2022-08-07T09:29:45;19.10;59.50
11229;DHT22;5671;47.936;8.716;2022-08-07T09:32:26;19.20;58.00
11229;DHT22;5671;47.936;8.716;2022-08-07T09:35:02;19.30;56.70
11229;DHT22;5671;47.936;8.716;2022-08-07T09:37:37;19.40;57.20
11229;DHT22;5671;47.936;8.716;2022-08-07T09:40:15;19.50;56.40
11229;DHT22;5671;47.936;8.716;2022-08-07T09:42:51;19.70;58.40
11229;DHT22;5671;47.936;8.716;2022-08-07T09:45:30;19.80;56.40
11229;DHT22;5671;47.936;8.716;2022-08-07T09:48:10;19.90;57.20
11229;DHT22;5671;47.936;8.716;2022-08-07T09:50:55;20.00;57.30
11229;DHT22;5671;47.936;8.716;2022-08-07T09:53:26;20.00;53.90
11229;DHT22;5671;47.936;8.716;2022-08-07T09:56:27;20.10;54.80
11229;DHT22;5671;47.936;8.716;2022-08-07T10:02:00;20.20;54.60
11229;DHT22;5671;47.936;8.716;2022-08-07T10:04:52;20.30;54.80
11229;DHT22;5671;47.936;8.716;2022-08-07T10:10:24;20.40;52.90
11229;DHT22;5671;47.936;8.716;2022-08-07T10:13:18;20.40;53.70
11229;DHT22;5671;47.936;8.716;2022-08-07T10:16:03;20.50;54.00
11229;DHT22;5671;47.936;8.716;2022-08-07T10:19:02;20.60;53.00
11229;DHT22;5671;47.936;8.716;2022-08-07T10:21:40;20.80;52.20
11229;DHT22;5671;47.936;8.716;2022-08-07T10:27:38;21.10;51.70
11229;DHT22;5671;47.936;8.716;2022-08-07T10:30:09;21.20;52.80
11229;DHT22;5671;47.936;8.716;2022-08-07T10:32:53;21.40;53.00
11229;DHT22;5671;47.936;8.716;2022-08-07T10:35:28;21.50;53.20
11229;DHT22;5671;47.936;8.716;2022-08-07T10:38:10;21.80;51.50
11229;DHT22;5671;47.936;8.716;2022-08-07T10:40:46;22.10;51.40
11229;DHT22;5671;47.936;8.716;2022-08-07T10:43:18;22.50;49.90
11229;DHT22;5671;47.936;8.716;2022-08-07T10:45:48;23.00;47.90
11229;DHT22;5671;47.936;8.716;2022-08-07T10:48:35;23.50;46.30
11229;DHT22;5671;47.936;8.716;2022-08-07T10:51:08;23.90;46.00
11229;DHT22;5671;47.936;8.716;2022-08-07T10:53:40;24.20;44.80
11229;DHT22;5671;47.936;8.716;2022-08-07T10:56:22;24.80;44.50
11229;DHT22;5671;47.936;8.716;2022-08-07T10:59:00;25.30;41.80
11229;DHT22;5671;47.936;8.716;2022-08-07T11:01:38;25.50;42.80
11229;DHT22;5671;47.936;8.716;2022-08-07T11:04:13;26.10;42.90
11229;DHT22;5671;47.936;8.716;2022-08-07T11:06:49;26.60;40.80
11229;DHT22;5671;47.936;8.716;2022-08-07T11:09:21;27.00;42.40
11229;DHT22;5671;47.936;8.716;2022-08-07T11:11:55;27.40;40.80
11229;DHT22;5671;47.936;8.716;2022-08-07T11:14:29;27.60;40.50
11229;DHT22;5671;47.936;8.716;2022-08-07T11:17:05;27.90;39.40
11229;DHT22;5671;47.936;8.716;2022-08-07T11:19:38;28.20;39.90
11229;DHT22;5671;47.936;8.716;2022-08-07T11:22:09;28.60;40.00
11229;DHT22;5671;47.936;8.716;2022-08-07T11:24:40;28.90;38.40
11229;DHT22;5671;47.936;8.716;2022-08-07T11:27:17;29.10;38.00
11229;DHT22;5671;47.936;8.716;2022-08-07T11:29:50;29.10;37.60
11229;DHT22;5671;47.936;8.716;2022-08-07T11:32:22;29.20;38.10
11229;DHT22;5671;47.936;8.716;2022-08-07T11:34:56;29.40;38.50
11229;DHT22;5671;47.936;8.716;2022-08-07T11:37:36;29.30;37.10
11229;DHT22;5671;47.936;8.716;2022-08-07T11:40:16;29.30;36.00
11229;DHT22;5671;47.936;8.716;2022-08-07T11:42:55;29.30;35.70
11229;DHT22;5671;47.936;8.716;2022-08-07T11:45:28;29.40;36.30
11229;DHT22;5671;47.936;8.716;2022-08-07T11:48:20;29.40;36.10
11229;DHT22;5671;47.936;8.716;2022-08-07T11:51:04;29.60;37.40
11229;DHT22;5671;47.936;8.716;2022-08-07T11:53:41;29.50;35.10
11229;DHT22;5671;47.936;8.716;2022-08-07T11:56:23;29.30;36.00
11229;DHT22;5671;47.936;8.716;2022-08-07T11:59:02;29.40;37.90
11229;DHT22;5671;47.936;8.716;2022-08-07T12:01:42;29.60;37.50
11229;DHT22;5671;47.936;8.716;2022-08-07T12:04:33;30.00;37.10
11229;DHT22;5671;47.936;8.716;2022-08-07T12:07:08;30.40;34.60
11229;DHT22;5671;47.936;8.716;2022-08-07T12:09:45;30.30;34.50
11229;DHT22;5671;47.936;8.716;2022-08-07T12:12:18;30.40;34.50
11229;DHT22;5671;47.936;8.716;2022-08-07T12:14:57;30.50;34.40
11229;DHT22;5671;47.936;8.716;2022-08-07T12:17:36;30.50;33.20
11229;DHT22;5671;47.936;8.716;2022-08-07T12:20:08;30.30;33.70
11229;DHT22;5671;47.936;8.716;2022-08-07T12:22:43;30.30;34.80
11229;DHT22;5671;47.936;8.716;2022-08-07T12:25:19;30.30;33.60
11229;DHT22;5671;47.936;8.716;2022-08-07T12:28:14;30.30;35.50
11229;DHT22;5671;47.936;8.716;2022-08-07T12:30:44;30.50;34.30
11229;DHT22;5671;47.936;8.716;2022-08-07T12:33:18;30.70;34.30
11229;DHT22;5671;47.936;8.716;2022-08-07T12:35:50;30.80;34.50
11229;DHT22;5671;47.936;8.716;2022-08-07T12:38:19;30.90;34.60
11229;DHT22;5671;47.936;8.716;2022-08-07T12:40:49;31.10;34.50
11229;DHT22;5671;47.936;8.716;2022-08-07T12:43:18;31.20;34.00
11229;DHT22;5671;47.936;8.716;2022-08-07T12:45:53;31.10;32.60
11229;DHT22;5671;47.936;8.716;2022-08-07T12:48:28;31.00;33.40
11229;DHT22;5671;47.936;8.716;2022-08-07T12:51:03;31.00;33.70
11229;DHT22;5671;47.936;8.716;2022-08-07T12:53:38;31.10;32.70
11229;DHT22;5671;47.936;8.716;2022-08-07T12:56:09;31.30;32.60
11229;DHT22;5671;47.936;8.716;2022-08-07T12:58:41;31.60;31.10
11229;DHT22;5671;47.936;8.716;2022-08-07T13:01:33;31.60;32.10
11229;DHT22;5671;47.936;8.716;2022-08-07T13:04:20;31.40;31.70
11229;DHT22;5671;47.936;8.716;2022-08-07T13:07:02;31.40;33.30
11229;DHT22;5671;47.936;8.716;2022-08-07T13:09:49;31.40;31.70
11229;DHT22;5671;47.936;8.716;2022-08-07T13:12:24;31.60;32.20
11229;DHT22;5671;47.936;8.716;2022-08-07T13:14:59;31.70;33.00
11229;DHT22;5671;47.936;8.716;2022-08-07T13:17:40;31.70;32.10
11229;DHT22;5671;47.936;8.716;2022-08-07T13:20:15;31.90;31.30
11229;DHT22;5671;47.936;8.716;2022-08-07T13:22:49;31.90;30.70
11229;DHT22;5671;47.936;8.716;2022-08-07T13:25:24;31.90;31.40
11229;DHT22;5671;47.936;8.716;2022-08-07T13:27:54;32.30;31.10
11229;DHT22;5671;47.936;8.716;2022-08-07T13:30:23;32.60;31.90
11229;DHT22;5671;47.936;8.716;2022-08-07T13:32:56;32.80;33.30
11229;DHT22;5671;47.936;8.716;2022-08-07T13:35:30;33.10;32.10
11229;DHT22;5671;47.936;8.716;2022-08-07T13:38:03;32.70;30.90
11229;DHT22;5671;47.936;8.716;2022-08-07T13:40:50;32.80;30.20
11229;DHT22;5671;47.936;8.716;2022-08-07T13:43:23;32.80;30.40
11229;DHT22;5671;47.936;8.716;2022-08-07T13:45:53;33.10;31.90
11229;DHT22;5671;47.936;8.716;2022-08-07T13:48:23;33.10;30.90
11229;DHT22;5671;47.936;8.716;2022-08-07T13:50:53;32.90;30.50
11229;DHT22;5671;47.936;8.716;2022-08-07T13:53:22;32.60;30.10
11229;DHT22;5671;47.936;8.716;2022-08-07T13:55:52;32.60;31.20
11229;DHT22;5671;47.936;8.716;2022-08-07T13:58:23;32.60;31.40
11229;DHT22;5671;47.936;8.716;2022-08-07T14:01:10;32.90;31.50
11229;DHT22;5671;47.936;8.716;2022-08-07T14:03:40;33.10;30.40
11229;DHT22;5671;47.936;8.716;2022-08-07T14:06:08;33.20;30.10
11229;DHT22;5671;47.936;8.716;2022-08-07T14:08:39;33.00;31.20
11229;DHT22;5671;47.936;8.716;2022-08-07T14:11:12;33.00;30.60
11229;DHT22;5671;47.936;8.716;2022-08-07T14:13:41;32.80;32.00
11229;DHT22;5671;47.936;8.716;2022-08-07T14:16:13;32.60;31.40
11229;DHT22;5671;47.936;8.716;2022-08-07T14:18:46;32.50;31.40
11229;DHT22;5671;47.936;8.716;2022-08-07T14:21:22;32.40;30.60
11229;DHT22;5671;47.936;8.716;2022-08-07T14:23:53;32.30;31.20
11229;DHT22;5671;47.936;8.716;2022-08-07T14:26:27;32.20;30.30
11229;DHT22;5671;47.936;8.716;2022-08-07T14:28:55;32.10;32.00
11229;DHT22;5671;47.936;8.716;2022-08-07T14:31:23;32.00;30.90
11229;DHT22;5671;47.936;8.716;2022-08-07T14:33:52;31.80;31.90
11229;DHT22;5671;47.936;8.716;2022-08-07T14:36:21;31.70;32.60
11229;DHT22;5671;47.936;8.716;2022-08-07T14:38:50;31.60;31.90
11229;DHT22;5671;47.936;8.716;2022-08-07T14:41:28;31.70;31.30
11229;DHT22;5671;47.936;8.716;2022-08-07T14:43:57;31.80;32.20
11229;DHT22;5671;47.936;8.716;2022-08-07T14:46:27;31.80;31.70
11229;DHT22;5671;47.936;8.716;2022-08-07T14:48:56;31.90;31.70
11229;DHT22;5671;47.936;8.716;2022-08-07T14:51:27;31.70;32.20
11229;DHT22;5671;47.936;8.716;2022-08-07T14:53:57;31.40;31.80
11229;DHT22;5671;47.936;8.716;2022-08-07T14:56:28;30.80;32.50
11229;DHT22;5671;47.936;8.716;2022-08-07T14:59:01;30.50;32.50
11229;DHT22;5671;47.936;8.716;2022-08-07T15:01:31;30.10;32.80
11229;DHT22;5671;47.936;8.716;2022-08-07T15:04:02;29.80;34.00
11229;DHT22;5671;47.936;8.716;2022-08-07T15:06:32;29.70;34.20
11229;DHT22;5671;47.936;8.716;2022-08-07T15:09:02;29.40;34.30
11229;DHT22;5671;47.936;8.716;2022-08-07T15:11:32;28.90;34.20
11229;DHT22;5671;47.936;8.716;2022-08-07T15:14:06;28.70;35.60
11229;DHT22;5671;47.936;8.716;2022-08-07T15:16:37;28.60;35.70
11229;DHT22;5671;47.936;8.716;2022-08-07T15:19:13;28.50;36.40
11229;DHT22;5671;47.936;8.716;2022-08-07T15:21:43;28.60;36.70
11229;DHT22;5671;47.936;8.716;2022-08-07T15:24:14;28.80;36.30
11229;DHT22;5671;47.936;8.716;2022-08-07T15:26:43;28.90;35.70
11229;DHT22;5671;47.936;8.716;2022-08-07T15:29:14;28.80;36.00
11229;DHT22;5671;47.936;8.716;2022-08-07T15:31:42;28.80;36.40
11229;DHT22;5671;47.936;8.716;2022-08-07T15:34:11;28.70;35.20
11229;DHT22;5671;47.936;8.716;2022-08-07T15:36:39;28.60;36.10
11229;DHT22;5671;47.936;8.716;2022-08-07T15:39:08;28.60;35.70
11229;DHT22;5671;47.936;8.716;2022-08-07T15:41:38;28.40;35.50
11229;DHT22;5671;47.936;8.716;2022-08-07T15:44:21;28.30;36.40
11229;DHT22;5671;47.936;8.716;2022-08-07T15:46:55;28.20;35.90
11229;DHT22;5671;47.936;8.716;2022-08-07T15:49:28;28.00;36.60
11229;DHT22;5671;47.936;8.716;2022-08-07T15:51:57;27.90;37.10
11229;DHT22;5671;47.936;8.716;2022-08-07T15:54:33;27.90;36.90
11229;DHT22;5671;47.936;8.716;2022-08-07T15:57:03;27.60;37.10
11229;DHT22;5671;47.936;8.716;2022-08-07T15:59:32;27.50;38.20
11229;DHT22;5671;47.936;8.716;2022-08-07T16:02:01;27.40;37.60
11229;DHT22;5671;47.936;8.716;2022-08-07T16:04:33;27.40;38.50
11229;DHT22;5671;47.936;8.716;2022-08-07T16:07:03;27.30;38.20
11229;DHT22;5671;47.936;8.716;2022-08-07T16:09:35;27.40;38.00
11229;DHT22;5671;47.936;8.716;2022-08-07T16:12:12;27.30;37.90
11229;DHT22;5671;47.936;8.716;2022-08-07T16:15:04;27.20;38.60
11229;DHT22;5671;47.936;8.716;2022-08-07T16:17:46;27.00;37.20
11229;DHT22;5671;47.936;8.716;2022-08-07T16:20:41;26.70;39.10
11229;DHT22;5671;47.936;8.716;2022-08-07T16:23:19;26.70;39.30
11229;DHT22;5671;47.936;8.716;2022-08-07T16:26:00;26.60;38.60